Time;durP1;ratioP1;P1;durP2;ratioP2;P2;SDS_P1;SDS_P2;PMS_P1;PMS_P2;Temp;Humidity;BMP_temperature;BMP_pressure;BME280_temperature;BME280_humidity;BME280_pressure;Samples;Min_cycle;Max_cycle;Signal;HPM_P1;HPM_P2
2024/02/12 00:00:31;;;;;;;16.70;12.00;;;;;;;;;;137586;1271;22571;-85
2024/02/12 00:03:54;;;;;;;;;;;;;;;;;;137727;1271;22568;-84
2024/02/12 00:06:57;;;;;;;14.90;12.20;;;;;;;;;;137702;1271;22253;-86
2024/02/12 00:10:05;;;;;;;16.10;12.90;;;;;;;;;;137709;1267;22308;-86
2024/02/12 00:13:07;;;;;;;18.90;11.60;;;;;;;;;;137779;1271;22368;-86
2024/02/12 00:16:11;;;;;;;17.20;11.80;;;;;;;;;;137357;1271;22545;-85
2024/02/12 00:19:13;;;;;;;14.60;11.60;;;;;;;;;;137541;1271;22506;-84
2024/02/12 00:22:16;;;;;;;15.30;11.70;;;;;;;;;;137675;1268;22209;-87
2024/02/12 00:25:18;;;;;;;16.20;13.10;;;;;;;;;;137584;1271;22245;-86
2024/02/12 00:28:22;;;;;;;14.10;11.00;;;;;;;;;;137590;1271;23059;-86
2024/02/12 00:31:25;;;;;;;16.80;12.90;;;;;;;;;;137618;1271;22854;-85
2024/02/12 00:34:28;;;;;;;14.70;11.00;;;;;;;;;;137659;1271;23068;-85
2024/02/12 00:37:31;;;;;;;14.70;10.90;;;;;;;;;;137447;1271;22613;-85
2024/02/12 00:40:34;;;;;;;19.20;12.50;;;;;;;;;;136957;1267;22879;-85
2024/02/12 00:43:37;;;;;;;18.60;11.70;;;;;;;;;;137083;1271;22545;-85
2024/02/12 00:46:39;;;;;;;11.30;9.40;;;;;;;;;;136843;1271;22572;-87
2024/02/12 00:49:43;;;;;;;11.40;9.10;;;;;;;;;;136810;1271;23024;-85
2024/02/12 00:52:46;;;;;;;11.40;7.70;;;;;;;;;;137053;1271;25281;-85
2024/02/12 00:55:50;;;;;;;9.70;7.30;;;;;;;;;;136965;1269;25951;-83
2024/02/12 00:58:54;;;;;;;8.90;6.90;;;;;;;;;;136760;1271;22519;-84
2024/02/12 01:01:57;;;;;;;8.10;7.30;;;;;;;;;;137074;1271;22888;-85
2024/02/12 01:05:20;;;;;;;7.10;6.10;;;;;;;;;;136922;1272;22578;-85
2024/02/12 01:08:24;;;;;;;7.50;6.00;;;;;;;;;;136584;1272;22592;-82
2024/02/12 01:11:28;;;;;;;8.30;5.80;;;;;;;;;;136513;1272;22615;-80
2024/02/12 01:14:30;;;;;;;7.90;5.40;;;;;;;;;;136520;1272;22567;-81
2024/02/12 01:17:33;;;;;;;7.50;5.60;;;;;;;;;;136557;1272;22569;-83
2024/02/12 01:20:38;;;;;;;6.70;5.60;;;;;;;;;;136481;1272;22497;-83
2024/02/12 01:23:44;;;;;;;9.00;5.60;;;;;;;;;;136479;1272;22699;-85
2024/02/12 01:26:47;;;;;;;5.90;5.00;;;;;;;;;;136932;1272;22572;-85
2024/02/12 01:29:50;;;;;;;5.90;5.40;;;;;;;;;;137419;1272;22680;-85
2024/02/12 01:32:54;;;;;;;6.10;5.10;;;;;;;;;;137137;1272;23000;-84
2024/02/12 01:35:57;;;;;;;6.00;5.40;;;;;;;;;;137007;1272;22547;-85
2024/02/12 01:39:00;;;;;;;7.70;5.20;;;;;;;;;;137393;1272;22287;-84
2024/02/12 01:42:02;;;;;;;8.50;5.40;;;;;;;;;;137264;1272;22964;-84
2024/02/12 01:45:08;;;;;;;5.80;5.30;;;;;;;;;;137259;1272;22197;-82
2024/02/12 01:48:11;;;;;;;6.40;5.80;;;;;;;;;;137418;1272;22551;-83
2024/02/12 01:51:14;;;;;;;6.60;6.00;;;;;;;;;;137469;1272;22540;-85
2024/02/12 01:54:19;;;;;;;;;;;;;;;;;;137244;1272;22573;-83
2024/02/12 01:57:21;;;;;;;6.80;6.20;;;;;;;;;;137377;1272;22861;-84
2024/02/12 02:00:26;;;;;;;9.90;6.70;;;;;;;;;;137427;1272;22241;-84
2024/02/12 02:03:30;;;;;;;6.90;6.20;;;;;;;;;;137420;1272;22248;-83
2024/02/12 02:06:32;;;;;;;6.60;6.00;;;;;;;;;;137384;1272;252642;-83
2024/02/12 02:09:35;;;;;;;7.60;6.00;;;;;;;;;;137232;1272;23155;-83
2024/02/12 02:12:38;;;;;;;8.80;6.60;;;;;;;;;;137095;1272;22544;-84
2024/02/12 02:15:42;;;;;;;9.60;7.30;;;;;;;;;;137490;1272;22416;-84
2024/02/12 02:18:45;;;;;;;8.50;7.70;;;;;;;;;;137137;1272;22628;-82
2024/02/12 02:21:48;;;;;;;9.10;8.00;;;;;;;;;;137302;1272;22557;-84
2024/02/12 02:24:51;;;;;;;9.60;8.50;;;;;;;;;;137354;1272;22471;-84
2024/02/12 02:27:54;;;;;;;9.90;8.60;;;;;;;;;;137269;1272;22553;-84
2024/02/12 02:30:57;;;;;;;8.60;7.80;;;;;;;;;;137612;1272;22303;-84
2024/02/12 02:33:59;;;;;;;9.60;8.10;;;;;;;;;;137500;1272;22212;-85
2024/02/12 02:37:03;;;;;;;10.70;8.90;;;;;;;;;;137409;1272;22234;-83
2024/02/12 02:40:08;;;;;;;10.40;7.80;;;;;;;;;;137443;1272;22245;-83
2024/02/12 02:43:11;;;;;;;8.20;7.30;;;;;;;;;;137194;1269;24374;-84
2024/02/12 02:46:14;;;;;;;8.30;7.30;;;;;;;;;;137580;1272;22586;-85
2024/02/12 02:49:18;;;;;;;6.90;6.30;;;;;;;;;;137315;1272;22317;-86
2024/02/12 02:52:21;;;;;;;7.40;6.70;;;;;;;;;;137410;1272;25403;-85
2024/02/12 02:55:24;;;;;;;7.30;6.20;;;;;;;;;;137353;1272;22560;-85
2024/02/12 02:58:30;;;;;;;7.60;6.70;;;;;;;;;;137457;1272;22567;-85
2024/02/12 03:01:34;;;;;;;8.10;6.80;;;;;;;;;;137260;1272;22549;-87
2024/02/12 03:04:38;;;;;;;8.10;7.40;;;;;;;;;;136959;1272;22229;-84
2024/02/12 03:07:43;;;;;;;7.20;6.60;;;;;;;;;;137274;1272;22639;-84
2024/02/12 03:10:45;;;;;;;7.00;6.10;;;;;;;;;;137403;1272;22567;-85
2024/02/12 03:13:48;;;;;;;8.10;6.90;;;;;;;;;;137331;1272;22535;-83
2024/02/12 03:16:51;;;;;;;6.80;6.30;;;;;;;;;;137125;1272;22715;-83
2024/02/12 03:19:54;;;;;;;7.10;6.40;;;;;;;;;;137457;1272;22210;-85
2024/02/12 03:22:56;;;;;;;6.80;6.20;;;;;;;;;;137621;1272;22190;-84
2024/02/12 03:25:59;;;;;;;8.60;7.10;;;;;;;;;;137271;1272;22396;-85
2024/02/12 03:29:02;;;;;;;6.70;6.00;;;;;;;;;;137212;1272;22544;-83
2024/02/12 03:32:05;;;;;;;7.00;6.30;;;;;;;;;;137414;1272;22192;-84
2024/02/12 03:35:08;;;;;;;6.70;6.10;;;;;;;;;;137455;1269;22285;-84
2024/02/12 03:38:11;;;;;;;7.70;6.70;;;;;;;;;;137607;1272;22360;-83
2024/02/12 03:41:13;;;;;;;8.80;6.90;;;;;;;;;;137504;1272;22710;-83
2024/02/12 03:44:17;;;;;;;8.10;6.70;;;;;;;;;;137572;1272;22403;-81
2024/02/12 03:47:27;;;;;;;6.60;6.00;;;;;;;;;;137455;1272;22260;-84
2024/02/12 04:00:30;;;;;;;10.70;6.00;;;;;;;;;;137592;1272;22482;-83
2024/02/12 04:03:32;;;;;;;7.00;5.70;;;;;;;;;;137300;1272;23250;-81
2024/02/12 04:06:35;;;;;;;6.30;5.80;;;;;;;;;;137482;1272;22283;-80
2024/02/12 04:09:41;;;;;;;7.20;5.80;;;;;;;;;;137553;1272;22179;-81
2024/02/12 04:12:44;;;;;;;6.20;5.60;;;;;;;;;;137538;1272;22259;-83
2024/02/12 04:15:48;;;;;;;6.00;5.50;;;;;;;;;;137299;1272;22302;-82
2024/02/12 04:18:50;;;;;;;7.90;5.30;;;;;;;;;;137556;1272;22186;-81
2024/02/12 04:21:53;;;;;;;5.70;5.00;;;;;;;;;;137497;1272;22238;-80
2024/02/12 04:24:55;;;;;;;5.70;5.20;;;;;;;;;;137202;1272;22537;-80
2024/02/12 04:28:00;;;;;;;5.80;5.30;;;;;;;;;;137646;1272;22889;-84
2024/02/12 04:31:06;;;;;;;5.30;4.80;;;;;;;;;;137558;1272;22468;-81
2024/02/12 04:34:09;;;;;;;6.20;4.60;;;;;;;;;;137514;1262;22414;-81
2024/02/12 04:37:11;;;;;;;5.50;4.60;;;;;;;;;;137552;1272;22253;-80
2024/02/12 04:40:14;;;;;;;4.80;4.40;;;;;;;;;;137549;1272;22272;-80
2024/02/12 04:43:16;;;;;;;6.50;4.10;;;;;;;;;;137515;1272;22304;-83
2024/02/12 04:46:19;;;;;;;4.20;3.80;;;;;;;;;;137409;1270;22250;-81
2024/02/12 04:49:21;;;;;;;4.20;3.80;;;;;;;;;;137584;1272;22306;-81
2024/02/12 04:52:24;;;;;;;6.90;4.20;;;;;;;;;;137554;1269;22290;-80
2024/02/12 04:55:27;;;;;;;5.80;3.70;;;;;;;;;;137598;1272;22313;-81
2024/02/12 04:58:29;;;;;;;5.50;3.70;;;;;;;;;;137468;1272;22386;-82
2024/02/12 05:01:32;;;;;;;7.60;3.60;;;;;;;;;;137449;1272;22347;-81
2024/02/12 05:04:35;;;;;;;5.10;3.70;;;;;;;;;;137557;1272;22342;-81
2024/02/12 05:07:38;;;;;;;4.70;3.70;;;;;;;;;;137607;1266;22219;-81
2024/02/12 05:10:41;;;;;;;4.20;3.80;;;;;;;;;;137572;1272;22248;-82
2024/02/12 05:13:43;;;;;;;4.10;3.70;;;;;;;;;;137534;1272;22282;-81
2024/02/12 05:16:49;;;;;;;4.70;3.80;;;;;;;;;;137570;1272;22159;-81
2024/02/12 05:23:12;;;;;;;4.80;3.60;;;;;;;;;;137571;1272;22118;-81
2024/02/12 05:26:15;;;;;;;4.20;3.20;;;;;;;;;;137555;1272;22166;-79
2024/02/12 05:29:18;;;;;;;6.10;3.50;;;;;;;;;;137597;1272;22425;-78
2024/02/12 05:32:22;;;;;;;7.40;4.10;;;;;;;;;;137578;1272;22380;-81
2024/02/12 05:35:24;;;;;;;4.90;3.70;;;;;;;;;;137538;1272;22684;-81
2024/02/12 05:38:27;;;;;;;4.10;3.80;;;;;;;;;;137596;1272;22520;-81
2024/02/12 05:41:30;;;;;;;4.60;4.20;;;;;;;;;;137515;1272;22192;-82
2024/02/12 05:44:32;;;;;;;5.80;3.30;;;;;;;;;;137602;1272;22278;-81
2024/02/12 05:47:35;;;;;;;7.00;4.20;;;;;;;;;;137586;1272;22341;-83
2024/02/12 05:50:38;;;;;;;4.30;3.90;;;;;;;;;;137548;1272;22283;-82
2024/02/12 05:53:41;;;;;;;4.60;4.20;;;;;;;;;;137551;1272;22382;-81
2024/02/12 05:56:43;;;;;;;4.60;4.20;;;;;;;;;;137510;1272;22281;-80
2024/02/12 05:59:46;;;;;;;5.20;4.70;;;;;;;;;;137568;1272;22782;-82
2024/02/12 06:02:49;;;;;;;6.10;5.00;;;;;;;;;;137587;1272;22152;-81
2024/02/12 06:05:52;;;;;;;5.70;5.00;;;;;;;;;;137370;1272;22411;-84
2024/02/12 06:08:54;;;;;;;6.60;5.00;;;;;;;;;;137602;1272;22217;-81
2024/02/12 06:11:57;;;;;;;5.50;5.00;;;;;;;;;;137533;1272;22623;-78
2024/02/12 06:15:00;;;;;;;9.60;5.50;;;;;;;;;;137508;1269;22260;-79
2024/02/12 06:18:03;;;;;;;5.50;5.00;;;;;;;;;;137508;1272;22236;-80
2024/02/12 06:21:07;;;;;;;7.20;5.50;;;;;;;;;;137511;1272;22229;-82
2024/02/12 06:24:11;;;;;;;5.70;5.00;;;;;;;;;;137508;1272;22243;-83
2024/02/12 06:27:13;;;;;;;5.90;5.30;;;;;;;;;;137556;1272;22237;-82
2024/02/12 06:30:16;;;;;;;5.70;5.20;;;;;;;;;;137544;1272;22174;-82
2024/02/12 06:33:19;;;;;;;6.10;5.20;;;;;;;;;;137538;1272;22200;-83
2024/02/12 06:36:23;;;;;;;7.80;5.60;;;;;;;;;;137572;1272;22282;-81
2024/02/12 06:39:28;;;;;;;5.30;4.60;;;;;;;;;;137522;1272;22281;-81
2024/02/12 06:42:31;;;;;;;8.20;5.20;;;;;;;;;;137481;1272;22393;-82
2024/02/12 06:45:34;;;;;;;7.40;5.10;;;;;;;;;;137534;1261;22303;-82
2024/02/12 06:48:38;;;;;;;7.30;6.00;;;;;;;;;;137409;1272;22258;-81
2024/02/12 06:51:40;;;;;;;6.90;5.80;;;;;;;;;;137499;1272;22240;-81
2024/02/12 06:54:46;;;;;;;8.70;6.20;;;;;;;;;;137479;1267;22935;-82
2024/02/12 06:57:49;;;;;;;7.30;5.90;;;;;;;;;;137554;1272;22215;-81
2024/02/12 07:00:54;;;;;;;8.80;5.80;;;;;;;;;;137498;1272;22217;-82
2024/02/12 07:03:57;;;;;;;7.20;5.20;;;;;;;;;;137595;1272;22251;-81
2024/02/12 07:07:00;;;;;;;6.30;5.60;;;;;;;;;;137630;1272;22223;-79
2024/02/12 07:10:04;;;;;;;5.80;5.20;;;;;;;;;;137557;1268;22226;-79
2024/02/12 07:13:07;;;;;;;8.00;5.70;;;;;;;;;;137662;1272;22247;-82
2024/02/12 07:16:09;;;;;;;6.90;5.00;;;;;;;;;;137620;1269;22674;-82
2024/02/12 07:19:12;;;;;;;5.80;4.90;;;;;;;;;;137595;1272;22180;-81
2024/02/12 07:22:15;;;;;;;7.50;6.40;;;;;;;;;;137595;1272;22338;-80
2024/02/12 07:25:17;;;;;;;7.70;5.90;;;;;;;;;;137450;1272;22596;-80
2024/02/12 07:28:22;;;;;;;7.40;5.10;;;;;;;;;;137489;1272;22525;-81
2024/02/12 07:31:24;;;;;;;6.20;5.00;;;;;;;;;;137551;1260;22293;-81
2024/02/12 07:34:27;;;;;;;5.40;4.80;;;;;;;;;;137609;1272;22433;-79
2024/02/12 07:37:29;;;;;;;5.20;4.50;;;;;;;;;;137550;1272;22724;-80
2024/02/12 07:40:33;;;;;;;6.70;4.30;;;;;;;;;;137570;1272;22309;-82
2024/02/12 07:43:36;;;;;;;5.90;4.40;;;;;;;;;;137538;1272;22669;-80
2024/02/12 07:46:38;;;;;;;5.60;4.80;;;;;;;;;;137592;1272;22299;-81
2024/02/12 07:49:41;;;;;;;5.60;4.80;;;;;;;;;;137597;1272;22328;-79
2024/02/12 07:52:43;;;;;;;4.70;4.20;;;;;;;;;;137522;1272;22235;-80
2024/02/12 07:55:46;;;;;;;5.30;4.70;;;;;;;;;;137555;1272;22331;-80
2024/02/12 07:58:48;;;;;;;4.90;4.50;;;;;;;;;;137596;1272;23058;-80
2024/02/12 08:01:52;;;;;;;7.00;4.80;;;;;;;;;;137575;1272;22287;-81
2024/02/12 08:04:54;;;;;;;5.50;4.60;;;;;;;;;;137508;1272;22217;-80
2024/02/12 08:07:57;;;;;;;6.20;4.90;;;;;;;;;;137536;1272;22320;-79
2024/02/12 08:11:00;;;;;;;5.50;4.70;;;;;;;;;;137397;1272;22949;-81
2024/02/12 08:14:02;;;;;;;5.90;4.70;;;;;;;;;;137554;1272;22739;-80
2024/02/12 08:17:06;;;;;;;7.40;5.10;;;;;;;;;;137539;1270;22390;-80
2024/02/12 08:20:11;;;;;;;7.40;4.90;;;;;;;;;;137531;1272;22322;-80
2024/02/12 08:23:14;;;;;;;6.30;4.80;;;;;;;;;;137518;1272;22610;-81
2024/02/12 08:26:16;;;;;;;6.20;5.00;;;;;;;;;;137438;1257;22249;-81
2024/02/12 08:29:19;;;;;;;5.80;4.60;;;;;;;;;;137574;1269;22211;-81
2024/02/12 08:32:22;;;;;;;9.00;4.90;;;;;;;;;;137506;1272;22351;-81
2024/02/12 08:35:25;;;;;;;5.00;4.50;;;;;;;;;;137582;1272;22261;-80
2024/02/12 08:38:27;;;;;;;7.10;4.90;;;;;;;;;;137569;1272;22351;-82
2024/02/12 08:41:30;;;;;;;8.10;4.90;;;;;;;;;;137612;1261;22210;-80
2024/02/12 08:44:35;;;;;;;8.70;5.20;;;;;;;;;;137556;1272;22457;-80
2024/02/12 08:47:38;;;;;;;7.40;5.60;;;;;;;;;;137577;1268;22216;-80
2024/02/12 08:50:41;;;;;;;8.00;5.80;;;;;;;;;;137594;1272;22272;-81
2024/02/12 08:53:44;;;;;;;6.90;6.20;;;;;;;;;;137548;1272;23115;-80
2024/02/12 08:56:47;;;;;;;9.40;5.70;;;;;;;;;;137586;1272;22264;-80
2024/02/12 08:59:49;;;;;;;8.50;5.90;;;;;;;;;;137584;1272;22237;-81
2024/02/12 09:02:52;;;;;;;7.30;5.40;;;;;;;;;;137556;1272;22276;-80
2024/02/12 09:05:54;;;;;;;8.00;5.40;;;;;;;;;;137537;1267;22312;-80
2024/02/12 09:08:57;;;;;;;5.90;5.00;;;;;;;;;;137593;1272;22283;-82
2024/02/12 09:12:01;;;;;;;5.30;4.60;;;;;;;;;;137543;1272;22302;-81
2024/02/12 09:15:03;;;;;;;5.70;4.70;;;;;;;;;;137543;1272;22291;-81
2024/02/12 09:18:06;;;;;;;5.30;4.50;;;;;;;;;;137536;1272;22219;-80
2024/02/12 09:21:09;;;;;;;8.00;4.90;;;;;;;;;;137459;1272;22223;-77
2024/02/12 09:24:11;;;;;;;7.90;4.80;;;;;;;;;;137480;1266;22649;-81
2024/02/12 09:27:14;;;;;;;4.90;3.90;;;;;;;;;;137480;1272;22230;-80
2024/02/12 09:30:16;;;;;;;4.90;3.80;;;;;;;;;;137372;1272;22572;-81
2024/02/12 09:33:19;;;;;;;5.50;3.80;;;;;;;;;;137511;1272;22210;-80
2024/02/12 09:36:24;;;;;;;5.30;3.60;;;;;;;;;;137461;1272;22320;-84
2024/02/12 09:39:27;;;;;;;4.20;3.50;;;;;;;;;;137582;1272;22208;-80
2024/02/12 09:42:30;;;;;;;3.90;3.10;;;;;;;;;;137575;1272;22419;-80
2024/02/12 09:45:32;;;;;;;6.20;4.20;;;;;;;;;;137617;1272;22257;-80
2024/02/12 09:48:35;;;;;;;6.10;4.10;;;;;;;;;;137510;1272;22200;-82
2024/02/12 09:51:37;;;;;;;5.60;3.60;;;;;;;;;;137607;1272;22308;-82
2024/02/12 09:54:40;;;;;;;8.20;4.90;;;;;;;;;;137638;1272;22252;-83
2024/02/12 09:57:43;;;;;;;5.80;3.50;;;;;;;;;;137625;1272;22338;-82
2024/02/12 10:00:46;;;;;;;4.70;3.10;;;;;;;;;;137572;1272;22349;-81
2024/02/12 10:03:50;;;;;;;9.00;3.40;;;;;;;;;;137603;1272;22894;-82
2024/02/12 10:06:52;;;;;;;4.80;3.50;;;;;;;;;;137627;1272;22291;-82
2024/02/12 10:09:55;;;;;;;4.40;3.10;;;;;;;;;;137583;1272;22365;-82
2024/02/12 10:12:58;;;;;;;5.90;4.70;;;;;;;;;;137469;1272;22301;-82
2024/02/12 10:16:01;;;;;;;8.50;5.10;;;;;;;;;;137634;1272;22259;-80
2024/02/12 10:19:04;;;;;;;6.20;4.00;;;;;;;;;;137587;1272;22238;-82
2024/02/12 10:22:06;;;;;;;7.70;3.80;;;;;;;;;;137567;1272;22599;-82
2024/02/12 10:25:10;;;;;;;6.20;3.00;;;;;;;;;;137602;1272;22249;-81
2024/02/12 10:28:12;;;;;;;5.80;3.30;;;;;;;;;;137564;1272;22550;-81
2024/02/12 10:31:15;;;;;;;6.00;3.50;;;;;;;;;;137618;1272;22221;-81
2024/02/12 10:34:19;;;;;;;3.10;2.50;;;;;;;;;;137575;1272;22204;-81
2024/02/12 10:37:21;;;;;;;3.90;2.90;;;;;;;;;;137677;1272;22242;-82
2024/02/12 10:40:24;;;;;;;4.50;2.90;;;;;;;;;;137554;1272;22293;-81
2024/02/12 10:43:26;;;;;;;3.90;3.00;;;;;;;;;;137216;1272;22267;-80
2024/02/12 10:46:31;;;;;;;3.80;3.00;;;;;;;;;;137614;1272;22881;-79
2024/02/12 10:49:33;;;;;;;;;;;;;;;;;;137674;1272;22290;-80
2024/02/12 10:52:36;;;;;;;3.40;3.10;;;;;;;;;;137639;1272;22309;-80
2024/02/12 10:55:39;;;;;;;4.80;2.70;;;;;;;;;;137618;1272;22253;-80
2024/02/12 10:58:42;;;;;;;4.10;2.30;;;;;;;;;;137583;1272;22195;-81
2024/02/12 11:01:45;;;;;;;4.20;2.60;;;;;;;;;;137611;1272;22392;-81
2024/02/12 11:04:48;;;;;;;2.70;2.30;;;;;;;;;;137534;1272;22252;-80
2024/02/12 11:07:52;;;;;;;4.40;2.60;;;;;;;;;;137555;1272;22279;-80
2024/02/12 11:10:56;;;;;;;5.40;2.90;;;;;;;;;;137550;1268;22278;-81
2024/02/12 11:13:58;;;;;;;4.10;3.10;;;;;;;;;;137586;1272;22964;-81
2024/02/12 11:17:01;;;;;;;4.90;3.60;;;;;;;;;;137565;1272;22232;-80
2024/02/12 11:20:05;;;;;;;6.70;3.90;;;;;;;;;;137542;1272;22244;-78
2024/02/12 11:23:08;;;;;;;3.80;2.70;;;;;;;;;;137535;1272;22201;-77
2024/02/12 11:26:10;;;;;;;2.80;2.40;;;;;;;;;;137533;1267;22920;-82
2024/02/12 11:29:13;;;;;;;6.10;2.70;;;;;;;;;;137542;1267;22210;-82
2024/02/12 11:32:16;;;;;;;4.70;3.60;;;;;;;;;;137524;1272;22167;-80
2024/02/12 11:35:19;;;;;;;3.20;2.90;;;;;;;;;;137549;1272;22934;-81
2024/02/12 11:38:21;;;;;;;4.20;2.20;;;;;;;;;;137572;1272;22376;-80
2024/02/12 11:41:24;;;;;;;2.90;2.40;;;;;;;;;;137481;1272;22273;-80
2024/02/12 11:44:27;;;;;;;4.00;2.60;;;;;;;;;;137533;1272;22224;-81
2024/02/12 11:47:31;;;;;;;5.20;2.70;;;;;;;;;;137552;1272;22821;-80
2024/02/12 11:50:34;;;;;;;7.20;3.50;;;;;;;;;;137549;1261;22706;-81
2024/02/12 11:53:37;;;;;;;5.50;3.00;;;;;;;;;;137535;1272;22247;-80
2024/02/12 11:56:40;;;;;;;5.10;3.70;;;;;;;;;;137607;1272;22260;-81
2024/02/12 11:59:45;;;;;;;5.10;3.60;;;;;;;;;;137526;1268;22237;-80
2024/02/12 12:02:47;;;;;;;4.00;3.30;;;;;;;;;;137550;1272;22679;-80
2024/02/12 12:05:53;;;;;;;4.20;3.10;;;;;;;;;;137521;1272;22279;-81
2024/02/12 12:08:56;;;;;;;4.50;3.40;;;;;;;;;;137539;1272;22230;-80
2024/02/12 12:11:59;;;;;;;2.90;2.60;;;;;;;;;;137567;1272;22281;-82
2024/02/12 12:15:03;;;;;;;2.50;2.30;;;;;;;;;;137519;1272;22387;-79
2024/02/12 12:18:06;;;;;;;2.80;2.30;;;;;;;;;;137543;1272;22251;-80
2024/02/12 12:21:08;;;;;;;3.90;2.80;;;;;;;;;;137525;1272;23187;-80
2024/02/12 12:24:13;;;;;;;3.20;2.50;;;;;;;;;;137365;1272;22387;-78
2024/02/12 12:27:16;;;;;;;;;;;;;;;;;;137510;1272;22710;-79
2024/02/12 12:30:19;;;;;;;3.70;2.70;;;;;;;;;;137500;1271;22846;-80
2024/02/12 12:33:21;;;;;;;4.90;3.30;;;;;;;;;;137551;1272;22701;-81
2024/02/12 12:36:24;;;;;;;10.30;2.90;;;;;;;;;;137514;1272;22291;-80
2024/02/12 12:39:27;;;;;;;8.60;3.60;;;;;;;;;;137524;1272;22340;-81
2024/02/12 12:42:30;;;;;;;4.20;3.80;;;;;;;;;;137514;1272;22501;-79
2024/02/12 12:45:34;;;;;;;7.60;4.20;;;;;;;;;;137495;1272;22307;-80
2024/02/12 12:48:38;;;;;;;5.70;3.60;;;;;;;;;;137472;1272;22224;-81
2024/02/12 12:51:40;;;;;;;8.40;4.30;;;;;;;;;;137529;1272;22890;-81
2024/02/12 12:54:43;;;;;;;7.20;3.90;;;;;;;;;;137561;1268;22238;-80
2024/02/12 12:57:46;;;;;;;4.50;3.60;;;;;;;;;;137562;1271;22316;-80
2024/02/12 13:00:49;;;;;;;4.70;3.20;;;;;;;;;;137599;1272;22252;-80
2024/02/12 13:03:52;;;;;;;9.10;4.30;;;;;;;;;;137565;1272;22412;-80
2024/02/12 13:06:55;;;;;;;9.30;4.00;;;;;;;;;;137565;1268;22306;-80
2024/02/12 13:09:57;;;;;;;6.10;3.80;;;;;;;;;;137546;1272;22749;-80
2024/02/12 13:13:00;;;;;;;4.50;3.90;;;;;;;;;;137509;1272;22798;-80
2024/02/12 13:16:05;;;;;;;11.40;5.80;;;;;;;;;;137468;1272;22317;-79
2024/02/12 13:19:09;;;;;;;8.40;4.20;;;;;;;;;;137519;1272;22266;-79
2024/02/12 13:22:15;;;;;;;7.70;4.20;;;;;;;;;;137490;1272;22369;-79
2024/02/12 13:25:18;;;;;;;6.00;4.30;;;;;;;;;;137410;1272;22349;-80
2024/02/12 13:28:22;;;;;;;8.30;5.30;;;;;;;;;;137434;1272;22179;-79
2024/02/12 13:31:28;;;;;;;17.00;6.70;;;;;;;;;;137450;1272;22286;-80
2024/02/12 13:34:31;;;;;;;9.30;5.40;;;;;;;;;;137484;1272;22255;-80
2024/02/12 13:37:34;;;;;;;12.40;5.30;;;;;;;;;;137567;1272;22325;-79
2024/02/12 13:40:36;;;;;;;5.80;4.10;;;;;;;;;;137525;1272;22277;-80
2024/02/12 13:43:39;;;;;;;12.60;7.30;;;;;;;;;;137561;1252;22221;-80
2024/02/12 13:46:42;;;;;;;8.50;5.00;;;;;;;;;;137556;1272;22980;-80
2024/02/12 13:49:46;;;;;;;12.00;6.60;;;;;;;;;;137575;1272;22300;-80
2024/02/12 13:52:49;;;;;;;14.10;6.80;;;;;;;;;;137599;1272;22257;-80
2024/02/12 13:55:52;;;;;;;19.30;7.70;;;;;;;;;;137544;1259;22245;-81
2024/02/12 13:58:54;;;;;;;14.30;7.50;;;;;;;;;;137597;1272;22389;-80
2024/02/12 14:01:57;;;;;;;12.60;6.30;;;;;;;;;;137625;1272;22700;-80
2024/02/12 14:05:00;;;;;;;14.30;6.50;;;;;;;;;;137435;1272;198551;-78
2024/02/12 14:08:04;;;;;;;13.30;5.80;;;;;;;;;;137616;1272;22745;-79
2024/02/12 14:11:06;;;;;;;12.80;7.10;;;;;;;;;;137628;1272;22165;-80
2024/02/12 14:14:09;;;;;;;11.70;7.40;;;;;;;;;;137610;1272;22303;-80
2024/02/12 14:17:11;;;;;;;14.20;7.50;;;;;;;;;;137562;1272;22155;-80
2024/02/12 14:20:16;;;;;;;12.40;7.80;;;;;;;;;;137579;1268;22335;-80
2024/02/12 14:23:19;;;;;;;15.70;8.70;;;;;;;;;;137504;1272;22216;-79
2024/02/12 14:26:22;;;;;;;18.20;10.20;;;;;;;;;;137429;1272;22282;-79
2024/02/12 14:29:25;;;;;;;16.90;8.50;;;;;;;;;;137484;1272;22697;-80
2024/02/12 14:32:29;;;;;;;12.50;7.80;;;;;;;;;;137431;1272;22284;-80
2024/02/12 14:35:34;;;;;;;19.80;9.40;;;;;;;;;;137297;1272;22873;-80
2024/02/12 14:38:38;;;;;;;34.80;15.30;;;;;;;;;;137551;1272;23007;-80
2024/02/12 14:41:42;;;;;;;33.30;15.10;;;;;;;;;;137563;1272;22329;-80
2024/02/12 14:44:47;;;;;;;19.50;10.20;;;;;;;;;;137627;1261;22242;-81
2024/02/12 14:47:49;;;;;;;14.90;9.10;;;;;;;;;;137629;1272;22247;-81
2024/02/12 14:50:56;;;;;;;10.90;7.60;;;;;;;;;;137533;1272;22268;-81
2024/02/12 14:53:58;;;;;;;13.70;7.50;;;;;;;;;;137578;1272;22248;-79
2024/02/12 14:57:01;;;;;;;152.70;14.00;;;;;;;;;;137506;1272;22252;-80
2024/02/12 15:00:05;;;;;;;19.90;9.90;;;;;;;;;;137531;1272;22692;-79
2024/02/12 15:03:11;;;;;;;21.90;12.10;;;;;;;;;;137647;1272;22208;-81
2024/02/12 15:06:13;;;;;;;17.30;9.30;;;;;;;;;;137610;1272;22646;-81
2024/02/12 15:09:22;;;;;;;21.40;11.20;;;;;;;;;;137598;1272;22714;-81
2024/02/12 15:12:24;;;;;;;13.10;7.70;;;;;;;;;;137506;1272;22775;-80
2024/02/12 15:15:27;;;;;;;18.60;11.70;;;;;;;;;;137536;1272;22407;-80
2024/02/12 15:18:29;;;;;;;23.60;14.30;;;;;;;;;;137562;1272;22282;-81
2024/02/12 15:21:32;;;;;;;19.40;10.60;;;;;;;;;;137546;1272;22291;-81
2024/02/12 15:24:35;;;;;;;22.30;12.80;;;;;;;;;;137596;1268;22243;-80
2024/02/12 15:27:38;;;;;;;29.60;17.60;;;;;;;;;;137579;1272;22384;-80
2024/02/12 15:30:40;;;;;;;45.80;27.50;;;;;;;;;;137468;1272;22445;-80
2024/02/12 15:33:43;;;;;;;44.00;26.00;;;;;;;;;;137640;1272;22234;-80
2024/02/12 15:36:46;;;;;;;23.30;17.30;;;;;;;;;;137556;1272;22254;-82
2024/02/12 15:39:49;;;;;;;21.10;12.30;;;;;;;;;;137437;1272;22432;-81
2024/02/12 15:42:52;;;;;;;21.50;11.90;;;;;;;;;;137576;1272;22268;-81
2024/02/12 15:45:58;;;;;;;20.00;10.80;;;;;;;;;;137516;1272;22407;-80
2024/02/12 15:49:00;;;;;;;31.90;12.90;;;;;;;;;;137614;1265;22253;-82
2024/02/12 15:52:05;;;;;;;22.60;10.70;;;;;;;;;;137603;1272;22232;-82
2024/02/12 15:55:10;;;;;;;33.30;10.70;;;;;;;;;;137541;1272;22243;-80
2024/02/12 15:58:14;;;;;;;23.10;9.40;;;;;;;;;;137589;1272;22215;-80
2024/02/12 16:01:20;;;;;;;14.60;9.30;;;;;;;;;;137377;1272;22586;-81
2024/02/12 16:04:23;;;;;;;15.90;10.20;;;;;;;;;;137502;1272;22581;-80
2024/02/12 16:07:28;;;;;;;24.10;14.80;;;;;;;;;;137584;1272;22253;-80
2024/02/12 16:10:31;;;;;;;26.40;14.90;;;;;;;;;;137434;1272;22315;-81
2024/02/12 16:13:33;;;;;;;26.10;14.40;;;;;;;;;;137571;1272;22621;-80
2024/02/12 16:16:36;;;;;;;28.90;19.40;;;;;;;;;;137435;1272;22242;-80
2024/02/12 16:19:40;;;;;;;37.10;22.40;;;;;;;;;;137596;1272;22361;-80
2024/02/12 16:22:43;;;;;;;27.30;15.70;;;;;;;;;;137455;1272;22542;-79
2024/02/12 16:25:46;;;;;;;27.40;15.50;;;;;;;;;;137578;1272;22227;-80
2024/02/12 16:28:49;;;;;;;36.70;19.00;;;;;;;;;;137489;1268;22260;-79
2024/02/12 16:31:51;;;;;;;30.60;18.20;;;;;;;;;;137603;1272;22429;-80
2024/02/12 16:34:54;;;;;;;32.70;15.30;;;;;;;;;;137541;1272;22331;-81
2024/02/12 16:37:57;;;;;;;23.10;12.70;;;;;;;;;;137610;1272;22224;-79
2024/02/12 16:40:59;;;;;;;20.10;12.70;;;;;;;;;;137601;1272;22343;-81
2024/02/12 16:44:02;;;;;;;16.30;8.80;;;;;;;;;;137569;1272;22252;-81
2024/02/12 16:47:04;;;;;;;31.60;6.50;;;;;;;;;;137380;1272;22654;-80
2024/02/12 16:50:07;;;;;;;51.50;7.20;;;;;;;;;;137470;1272;22293;-80
2024/02/12 16:53:10;;;;;;;19.80;7.50;;;;;;;;;;137652;1272;22209;-80
2024/02/12 16:56:15;;;;;;;14.50;7.60;;;;;;;;;;137584;1272;22194;-80
2024/02/12 16:59:18;;;;;;;11.50;6.80;;;;;;;;;;137486;1272;22240;-79
2024/02/12 17:02:21;;;;;;;17.30;8.50;;;;;;;;;;137536;1272;22243;-80
2024/02/12 17:05:23;;;;;;;13.20;9.50;;;;;;;;;;137558;1272;22214;-80
2024/02/12 17:08:26;;;;;;;18.30;10.70;;;;;;;;;;137567;1268;22211;-80
2024/02/12 17:11:31;;;;;;;27.00;11.80;;;;;;;;;;137551;1272;22294;-82
2024/02/12 17:14:34;;;;;;;22.70;12.90;;;;;;;;;;137418;1272;22876;-82
2024/02/12 17:17:37;;;;;;;25.10;13.90;;;;;;;;;;137598;1272;22303;-82
2024/02/12 17:20:41;;;;;;;22.70;13.40;;;;;;;;;;137508;1268;22253;-81
2024/02/12 17:23:44;;;;;;;26.30;13.60;;;;;;;;;;137635;1272;22225;-82
2024/02/12 17:26:47;;;;;;;23.60;13.30;;;;;;;;;;137530;1272;22252;-81
2024/02/12 17:29:50;;;;;;;22.90;12.80;;;;;;;;;;137519;1272;22334;-81
2024/02/12 17:32:53;;;;;;;18.10;11.60;;;;;;;;;;137565;1262;22233;-82
2024/02/12 17:35:56;;;;;;;19.40;11.70;;;;;;;;;;137623;1272;22238;-81
2024/02/12 17:38:58;;;;;;;22.80;12.20;;;;;;;;;;137598;1272;22253;-80
2024/02/12 17:42:01;;;;;;;18.40;12.00;;;;;;;;;;137640;1272;22305;-79
2024/02/12 17:45:04;;;;;;;16.40;10.50;;;;;;;;;;137639;1272;22269;-82
2024/02/12 17:48:07;;;;;;;17.40;11.30;;;;;;;;;;137658;1272;22319;-83
2024/02/12 17:51:09;;;;;;;17.20;11.60;;;;;;;;;;137602;1272;22912;-84
2024/02/12 17:54:12;;;;;;;32.20;18.60;;;;;;;;;;137616;1272;22306;-84
2024/02/12 17:57:15;;;;;;;60.50;27.70;;;;;;;;;;137486;1272;22765;-81
2024/02/12 18:00:20;;;;;;;97.90;48.70;;;;;;;;;;137588;1272;22393;-82
2024/02/12 18:03:24;;;;;;;103.20;54.40;;;;;;;;;;137571;1272;22263;-81
2024/02/12 18:06:27;;;;;;;77.30;43.90;;;;;;;;;;137525;1272;22540;-80